Time;durP1;ratioP1;P1;durP2;ratioP2;P2;SDS_P1;SDS_P2;PMS_P1;PMS_P2;Temp;Humidity;BMP_temperature;BMP_pressure;BME280_temperature;BME280_humidity;BME280_pressure;Samples;Min_cycle;Max_cycle;Signal;HPM_P1;HPM_P2
2023/09/07 00:01:08;;;;;;;14.90;6.30;;;;;;;15.61;65.31;101935.84;107427;1254;108725;-66
2023/09/07 00:03:40;;;;;;;12.50;6.10;;;;;;;15.56;65.84;101940.31;107335;1257;100328;-65
2023/09/07 00:06:10;;;;;;;12.40;6.30;;;;;;;15.49;66.17;101939.88;107330;1256;99393;-66
2023/09/07 00:08:39;;;;;;;12.20;6.50;;;;;;;15.45;66.11;101941.30;107379;1254;113343;-65
2023/09/07 00:11:11;;;;;;;14.10;6.40;;;;;;;15.44;66.21;101939.56;107373;1254;110018;-64
2023/09/07 00:13:40;;;;;;;25.80;6.60;;;;;;;15.43;66.16;101940.38;107402;1253;107206;-65
2023/09/07 00:16:08;;;;;;;16.00;6.70;;;;;;;15.40;66.51;101939.44;107383;1254;99328;-65
2023/09/07 00:18:37;;;;;;;14.80;7.10;;;;;;;15.35;66.78;101936.40;107378;1254;99050;-66
2023/09/07 00:21:06;;;;;;;12.30;6.70;;;;;;;15.33;66.67;101941.66;107350;1254;113233;-64
2023/09/07 00:23:34;;;;;;;13.70;7.10;;;;;;;15.30;66.64;101940.66;107361;1257;109306;-65
2023/09/07 00:26:03;;;;;;;15.00;7.00;;;;;;;15.29;66.63;101941.14;107194;1254;108360;-66
2023/09/07 00:28:32;;;;;;;21.90;7.10;;;;;;;15.29;66.54;101938.18;107236;1254;99398;-65
2023/09/07 00:31:00;;;;;;;21.50;7.60;;;;;;;15.32;66.48;101937.25;107364;1254;99783;-65
2023/09/07 00:33:29;;;;;;;16.50;7.40;;;;;;;15.36;66.42;101934.35;107434;1253;112259;-65
2023/09/07 00:35:58;;;;;;;12.20;6.60;;;;;;;15.37;66.27;101934.47;107415;1254;109560;-66
2023/09/07 00:38:26;;;;;;;12.80;6.70;;;;;;;15.36;66.27;101936.65;107353;1257;107932;-65
2023/09/07 00:40:54;;;;;;;22.60;7.40;;;;;;;15.37;66.20;101934.77;107351;1254;99218;-66
2023/09/07 00:43:23;;;;;;;18.30;7.10;;;;;;;15.38;65.97;101935.11;107294;1254;99250;-66
2023/09/07 00:45:52;;;;;;;21.80;10.10;;;;;;;15.38;66.03;101934.56;107385;1254;113065;-67
2023/09/07 00:48:21;;;;;;;13.30;6.40;;;;;;;15.39;65.99;101936.83;107330;1254;109260;-66
2023/09/07 00:50:50;;;;;;;15.00;7.40;;;;;;;15.40;65.99;101937.12;107362;1254;107659;-65
2023/09/07 00:53:19;;;;;;;12.40;7.30;;;;;;;15.40;65.89;101935.09;107337;1253;99449;-65
2023/09/07 00:55:47;;;;;;;12.30;6.90;;;;;;;15.39;65.66;101935.71;107417;1254;99144;-65
2023/09/07 00:58:16;;;;;;;16.90;6.60;;;;;;;15.39;65.53;101936.43;107241;1257;113741;-65
2023/09/07 01:00:44;;;;;;;11.60;7.00;;;;;;;15.41;65.38;101935.95;107160;1254;108726;-66
2023/09/07 01:03:15;;;;;;;13.50;6.70;;;;;;;15.42;65.35;101940.13;107294;1256;109110;-65
2023/09/07 01:05:54;;;;;;;16.30;6.70;;;;;;;15.43;65.34;101936.12;107388;1254;99284;-64
2023/09/07 01:08:26;;;;;;;14.30;6.60;;;;;;;15.40;65.08;101932.38;107352;1256;99057;-65
2023/09/07 01:10:54;;;;;;;15.20;7.20;;;;;;;15.33;65.09;101935.10;107416;1254;112541;-66
2023/09/07 01:13:23;;;;;;;12.80;6.40;;;;;;;15.31;65.18;101939.16;107444;1253;109079;-64
2023/09/07 01:15:52;;;;;;;15.70;6.60;;;;;;;15.28;65.08;101940.32;107396;1254;107635;-66
2023/09/07 01:18:21;;;;;;;15.50;6.40;;;;;;;15.27;65.33;101942.20;107350;1254;99285;-64
2023/09/07 01:21:08;;;;;;;15.20;6.90;;;;;;;15.27;65.35;101941.09;107284;1254;99093;-65
2023/09/07 01:23:38;;;;;;;14.40;6.70;;;;;;;15.26;65.36;101940.15;107387;1257;112277;-65
2023/09/07 01:26:08;;;;;;;12.20;6.70;;;;;;;15.23;65.41;101937.27;107416;1254;109087;-65
2023/09/07 01:28:37;;;;;;;18.20;6.90;;;;;;;15.20;65.61;101942.84;107388;1254;107230;-66
2023/09/07 01:31:06;;;;;;;14.70;7.10;;;;;;;15.14;65.62;101947.01;107267;1254;99307;-65
2023/09/07 01:33:35;;;;;;;12.60;6.30;;;;;;;15.10;65.65;101946.77;107356;1257;99067;-65
2023/09/07 01:36:05;;;;;;;11.40;6.60;;;;;;;15.08;65.70;101948.06;107336;1254;112922;-66
2023/09/07 01:38:33;;;;;;;11.70;6.20;;;;;;;15.04;66.02;101945.89;107352;1257;109031;-65
2023/09/07 01:41:01;;;;;;;15.10;6.90;;;;;;;14.97;66.28;101946.84;107386;1254;108609;-65
2023/09/07 01:43:30;;;;;;;13.30;7.10;;;;;;;14.90;66.94;101946.17;107272;1254;99119;-65
2023/09/07 01:45:58;;;;;;;12.10;6.80;;;;;;;14.85;66.83;101946.29;107355;1254;99095;-66
2023/09/07 01:48:27;;;;;;;11.70;6.30;;;;;;;14.82;66.94;101951.80;107383;1254;114602;-67
2023/09/07 01:50:55;;;;;;;12.50;6.20;;;;;;;14.80;67.06;101947.59;107366;1254;109287;-66
2023/09/07 01:53:24;;;;;;;10.80;6.70;;;;;;;14.80;67.09;101947.92;107396;1254;107692;-66
2023/09/07 01:55:56;;;;;;;14.90;6.60;;;;;;;14.81;66.90;101952.98;107350;1254;99207;-64
2023/09/07 01:58:25;;;;;;;14.80;7.00;;;;;;;14.80;66.85;101949.06;107318;1254;98942;-65
2023/09/07 02:00:57;;;;;;;13.10;7.00;;;;;;;14.80;66.75;101954.69;107371;1254;113499;-66
2023/09/07 02:03:26;;;;;;;17.80;6.80;;;;;;;14.81;66.91;101955.09;107431;1254;108146;-65
2023/09/07 02:05:55;;;;;;;12.20;6.30;;;;;;;14.82;66.75;101958.10;107312;1257;106939;-65
2023/09/07 02:08:23;;;;;;;11.60;6.30;;;;;;;14.82;66.83;101956.98;107259;1254;99297;-64
2023/09/07 02:10:51;;;;;;;11.50;6.60;;;;;;;14.81;66.65;101954.92;107219;1257;99108;-64
2023/09/07 02:13:19;;;;;;;8.70;5.80;;;;;;;14.79;66.92;101956.91;107207;1257;113533;-66
2023/09/07 02:15:48;;;;;;;13.20;6.00;;;;;;;14.73;66.95;101955.48;107310;1257;109233;-65
2023/09/07 02:18:16;;;;;;;16.80;7.20;;;;;;;14.67;67.02;101956.30;107282;1254;108290;-65
2023/09/07 02:20:45;;;;;;;18.20;6.70;;;;;;;14.64;67.02;101958.34;107430;1254;99932;-66
2023/09/07 02:23:14;;;;;;;13.60;6.80;;;;;;;14.62;67.10;101960.34;107440;1254;99196;-67
2023/09/07 02:25:43;;;;;;;11.90;6.60;;;;;;;14.61;67.05;101960.80;107303;1254;113051;-65
2023/09/07 02:28:11;;;;;;;9.30;6.40;;;;;;;14.61;67.10;101964.77;107328;1254;109472;-66
2023/09/07 02:30:39;;;;;;;22.30;7.30;;;;;;;14.60;67.41;101959.83;107409;1254;107890;-65
2023/09/07 02:33:08;;;;;;;15.10;6.70;;;;;;;14.59;67.45;101960.98;107344;1256;99170;-65
2023/09/07 02:35:37;;;;;;;17.20;7.50;;;;;;;14.59;67.58;101965.69;107372;1256;99319;-65
2023/09/07 02:38:06;;;;;;;17.00;8.00;;;;;;;14.57;67.51;101957.48;107425;1254;111357;-65
2023/09/07 02:40:44;;;;;;;17.70;7.20;;;;;;;14.59;67.40;101960.75;107421;1254;109900;-66
2023/09/07 02:43:13;;;;;;;13.60;7.10;;;;;;;14.60;67.54;101961.39;107307;1254;107652;-67
2023/09/07 02:45:42;;;;;;;13.80;6.80;;;;;;;14.61;67.46;101963.53;107318;1256;99220;-65
2023/09/07 02:48:11;;;;;;;15.20;6.20;;;;;;;14.61;67.34;101966.79;107244;1254;99261;-66
2023/09/07 02:50:39;;;;;;;12.10;7.10;;;;;;;14.61;67.41;101968.55;107307;1254;112242;-65
2023/09/07 02:53:08;;;;;;;18.70;7.10;;;;;;;14.62;67.28;101964.67;107383;1254;109921;-66
2023/09/07 02:55:39;;;;;;;11.50;6.30;;;;;;;14.61;67.32;101965.98;107383;1254;108154;-66
2023/09/07 02:58:08;;;;;;;12.10;7.10;;;;;;;14.61;67.24;101960.40;107296;1257;99186;-66
2023/09/07 03:00:44;;;;;;;14.40;6.50;;;;;;;14.60;67.24;101960.85;107261;1257;99451;-65
2023/09/07 03:03:14;;;;;;;13.10;7.30;;;;;;;14.56;67.29;101966.58;107306;1254;113009;-65
2023/09/07 03:05:43;;;;;;;15.50;7.50;;;;;;;14.55;67.34;101968.85;107335;1254;109402;-67
2023/09/07 03:08:12;;;;;;;14.70;6.40;;;;;;;14.54;67.59;101970.81;107397;1254;108160;-65
2023/09/07 03:10:40;;;;;;;19.60;7.00;;;;;;;14.53;67.41;101973.20;107290;1254;99327;-66
2023/09/07 03:13:09;;;;;;;13.80;7.00;;;;;;;14.52;67.38;101972.87;107424;1257;99726;-66
2023/09/07 03:15:37;;;;;;;12.70;6.60;;;;;;;14.50;67.79;101975.27;107410;1253;113460;-65
2023/09/07 03:18:08;;;;;;;14.40;6.60;;;;;;;14.47;67.80;101978.24;107383;1254;109903;-65
2023/09/07 03:20:38;;;;;;;16.70;7.00;;;;;;;14.43;68.00;101974.80;107270;1254;108507;-65
2023/09/07 03:23:07;;;;;;;16.30;7.20;;;;;;;14.42;68.03;101975.64;107370;1254;98974;-66
2023/09/07 03:25:36;;;;;;;15.90;6.80;;;;;;;14.40;67.87;101977.00;107463;1254;99751;-64
2023/09/07 03:28:05;;;;;;;15.90;7.10;;;;;;;14.39;67.87;101976.56;107423;1254;112373;-64
2023/09/07 03:30:35;;;;;;;12.50;7.10;;;;;;;14.36;67.88;101982.41;107394;1254;109452;-64
2023/09/07 03:33:05;;;;;;;16.20;6.50;;;;;;;14.33;68.09;101984.45;107366;1257;107077;-64
2023/09/07 03:35:33;;;;;;;18.20;6.60;;;;;;;14.30;68.15;101988.53;107366;1254;99375;-65
2023/09/07 03:38:03;;;;;;;14.40;6.70;;;;;;;14.27;68.49;101988.98;107406;1254;99038;-66
2023/09/07 03:40:32;;;;;;;22.70;7.80;;;;;;;14.24;68.51;101994.11;107322;1253;111909;-66
2023/09/07 03:43:00;;;;;;;17.90;6.80;;;;;;;14.21;68.52;101995.72;107269;1254;109760;-66
2023/09/07 03:45:30;;;;;;;20.80;7.10;;;;;;;14.22;68.43;101996.60;107355;1254;107151;-66
2023/09/07 03:47:59;;;;;;;15.70;7.20;;;;;;;14.22;68.67;102004.55;107348;1254;99344;-65
2023/09/07 03:50:28;;;;;;;18.30;7.00;;;;;;;14.21;68.61;102006.08;107428;1254;99295;-65
2023/09/07 03:52:56;;;;;;;23.20;7.30;;;;;;;14.21;68.58;102005.88;107237;1254;114610;-64
2023/09/07 03:55:24;;;;;;;25.00;6.70;;;;;;;14.21;68.62;102006.76;107309;1254;109691;-66
2023/09/07 03:57:52;;;;;;;14.10;7.10;;;;;;;14.22;68.71;102006.88;107349;1254;108559;-66
2023/09/07 04:00:21;;;;;;;11.40;7.20;;;;;;;14.24;68.88;102003.66;107365;1254;99188;-65
2023/09/07 04:02:49;;;;;;;16.40;7.00;;;;;;;14.25;68.95;102010.44;107328;1257;99179;-65
2023/09/07 04:05:18;;;;;;;16.40;6.90;;;;;;;14.26;68.87;102010.89;107385;1254;113428;-66
2023/09/07 04:07:46;;;;;;;13.40;7.20;;;;;;;14.27;69.05;102016.19;107360;1254;109274;-65
2023/09/07 04:10:14;;;;;;;18.40;6.80;;;;;;;14.29;69.02;102010.27;107346;1254;108178;-66
2023/09/07 04:12:43;;;;;;;13.60;7.40;;;;;;;14.31;69.03;102019.13;107333;1254;99656;-64
2023/09/07 04:15:11;;;;;;;17.40;7.10;;;;;;;14.32;69.09;102014.52;107383;1254;99816;-65
2023/09/07 04:17:42;;;;;;;28.50;12.60;;;;;;;14.32;68.98;102015.43;107271;1254;112808;-65
2023/09/07 04:20:14;;;;;;;10.80;6.50;;;;;;;14.34;68.97;102016.67;107283;1254;108851;-65
2023/09/07 04:22:42;;;;;;;18.30;7.30;;;;;;;14.38;68.93;102016.20;107329;1254;107700;-65
2023/09/07 04:25:10;;;;;;;19.30;7.50;;;;;;;14.41;69.00;102011.23;107374;1254;99230;-65
2023/09/07 04:27:39;;;;;;;17.70;7.60;;;;;;;14.45;68.97;102018.64;107448;1254;99789;-65
2023/09/07 04:30:09;;;;;;;15.30;7.60;;;;;;;14.49;68.94;102018.34;107417;1254;112039;-65
2023/09/07 04:32:37;;;;;;;21.90;7.80;;;;;;;14.53;68.97;102021.96;107248;1257;109718;-64
2023/09/07 04:35:07;;;;;;;26.60;7.40;;;;;;;14.57;68.90;102024.52;107392;1257;106597;-65
2023/09/07 04:37:36;;;;;;;16.60;8.70;;;;;;;14.60;68.92;102025.84;107252;1253;99260;-65
2023/09/07 04:40:06;;;;;;;23.30;7.80;;;;;;;14.68;68.76;102031.54;107422;1254;99724;-66
2023/09/07 04:42:35;;;;;;;14.00;7.60;;;;;;;14.73;68.74;102026.79;107384;1254;112264;-64
2023/09/07 04:45:07;;;;;;;17.20;6.40;;;;;;;14.77;68.81;102028.98;107300;1260;108788;-65
2023/09/07 04:47:37;;;;;;;16.80;7.60;;;;;;;14.79;68.53;102034.20;107257;1254;107353;-65
2023/09/07 04:50:07;;;;;;;21.10;9.30;;;;;;;14.84;68.37;102033.22;107389;1254;99192;-66
2023/09/07 04:52:36;;;;;;;13.50;7.70;;;;;;;14.89;68.43;102021.83;107305;1257;99723;-66
2023/09/07 04:55:05;;;;;;;14.60;6.90;;;;;;;14.92;68.29;102032.40;107355;1257;112570;-66
2023/09/07 04:57:36;;;;;;;19.90;6.90;;;;;;;14.93;68.33;102031.59;107240;1254;110120;-65
2023/09/07 05:00:07;;;;;;;14.80;7.50;;;;;;;14.94;68.30;102030.79;107278;1254;108087;-65
2023/09/07 05:02:42;;;;;;;23.30;8.00;;;;;;;14.94;68.09;102035.05;107181;1257;99364;-64
2023/09/07 05:05:11;;;;;;;13.30;6.60;;;;;;;14.94;68.31;102034.20;107256;1257;99303;-65
2023/09/07 05:07:39;;;;;;;19.20;7.80;;;;;;;14.91;68.26;102033.02;107263;1257;112430;-65
2023/09/07 05:10:12;;;;;;;23.30;7.00;;;;;;;14.90;68.16;102032.36;107370;1256;109978;-65
2023/09/07 05:12:41;;;;;;;21.50;8.30;;;;;;;14.91;68.65;102034.96;107318;1256;108506;-64
2023/09/07 05:15:10;;;;;;;20.00;10.00;;;;;;;14.93;68.69;102036.48;107381;1256;99179;-65
2023/09/07 05:17:38;;;;;;;23.60;7.20;;;;;;;14.94;68.51;102037.42;107188;1260;99243;-64
2023/09/07 05:20:09;;;;;;;19.60;8.50;;;;;;;14.98;68.55;102041.98;107348;1256;113569;-65
2023/09/07 05:22:39;;;;;;;16.10;7.70;;;;;;;15.03;68.64;102039.37;107272;1257;110038;-66
2023/09/07 05:25:09;;;;;;;20.20;6.60;;;;;;;15.09;68.52;102034.52;107294;1257;107909;-64
2023/09/07 05:27:38;;;;;;;17.00;7.40;;;;;;;15.18;68.28;102038.98;107334;1256;98647;-65
2023/09/07 05:30:07;;;;;;;13.40;7.10;;;;;;;15.25;68.12;102043.75;107378;1256;99182;-66
2023/09/07 05:32:36;;;;;;;17.50;6.80;;;;;;;15.33;67.98;102042.73;107332;1257;113177;-65
2023/09/07 05:35:05;;;;;;;18.50;7.50;;;;;;;15.44;68.15;102041.77;107338;1256;109167;-66
2023/09/07 05:37:33;;;;;;;22.10;7.30;;;;;;;15.54;68.12;102043.60;107212;1255;108575;-64
2023/09/07 05:40:03;;;;;;;16.10;7.70;;;;;;;15.62;67.71;102048.29;107424;1258;99204;-66
2023/09/07 05:42:32;;;;;;;24.70;8.60;;;;;;;15.69;67.47;102052.41;107254;1256;99102;-65
2023/09/07 05:45:00;;;;;;;24.40;8.30;;;;;;;15.72;67.33;102054.44;107346;1257;114539;-66
2023/09/07 05:47:29;;;;;;;18.90;7.70;;;;;;;15.76;67.18;102056.98;107208;1256;110036;-66
2023/09/07 05:49:57;;;;;;;19.10;7.80;;;;;;;15.83;66.96;102052.01;107316;1256;108225;-66
2023/09/07 05:52:25;;;;;;;14.20;7.40;;;;;;;15.90;66.81;102051.19;107306;1255;99381;-65
2023/09/07 05:54:54;;;;;;;21.00;8.10;;;;;;;15.98;66.49;102056.64;107409;1256;99197;-66
2023/09/07 05:57:22;;;;;;;20.40;7.40;;;;;;;16.05;66.24;102054.92;107212;1257;113043;-65
2023/09/07 05:59:52;;;;;;;21.70;8.70;;;;;;;16.11;65.99;102053.48;107124;1257;110089;-65
2023/09/07 06:02:20;;;;;;;17.70;7.70;;;;;;;16.16;65.79;102053.55;107236;1257;108401;-65
2023/09/07 06:04:49;;;;;;;15.90;7.10;;;;;;;16.20;65.19;102056.67;107138;1260;99294;-65
2023/09/07 06:07:17;;;;;;;15.50;7.70;;;;;;;16.20;64.87;102056.04;107235;1257;99111;-66
2023/09/07 06:09:45;;;;;;;13.00;7.40;;;;;;;16.24;64.89;102056.80;107311;1257;112848;-66
2023/09/07 06:12:14;;;;;;;15.50;8.30;;;;;;;16.31;64.69;102057.45;107317;1257;109924;-66
2023/09/07 06:14:44;;;;;;;16.60;7.50;;;;;;;16.36;64.47;102060.41;107287;1257;107556;-65
2023/09/07 06:17:12;;;;;;;17.80;7.80;;;;;;;16.42;64.23;102060.22;107122;1256;99180;-65
2023/09/07 06:19:41;;;;;;;15.70;7.70;;;;;;;16.52;64.06;102058.22;107321;1257;99208;-66
2023/09/07 06:22:09;;;;;;;22.50;7.40;;;;;;;16.62;63.80;102062.70;107237;1255;114484;-66
2023/09/07 06:24:38;;;;;;;20.70;8.20;;;;;;;16.71;63.31;102062.80;107328;1256;109273;-66
2023/09/07 06:27:06;;;;;;;13.50;7.30;;;;;;;16.77;63.36;102060.04;107168;1260;107819;-65
2023/09/07 06:29:34;;;;;;;15.40;8.30;;;;;;;16.83;63.20;102059.31;107278;1254;99055;-64
2023/09/07 06:32:03;;;;;;;18.50;8.80;;;;;;;16.91;63.01;102067.05;107192;1257;99151;-65
2023/09/07 06:34:31;;;;;;;13.90;8.40;;;;;;;17.02;62.84;102067.84;107229;1257;113231;-65
2023/09/07 06:37:00;;;;;;;15.50;7.70;;;;;;;17.15;62.63;102066.38;107378;1258;108831;-65
2023/09/07 06:39:29;;;;;;;18.60;8.70;;;;;;;17.33;62.57;102062.15;107332;1257;108215;-65
2023/09/07 06:41:57;;;;;;;14.30;7.60;;;;;;;17.52;62.26;102067.25;107199;1260;99185;-65
2023/09/07 06:44:29;;;;;;;12.80;7.10;;;;;;;17.68;61.74;102061.90;107314;1257;99722;-66
2023/09/07 06:46:58;;;;;;;20.20;9.10;;;;;;;17.71;61.16;102061.33;107335;1257;112907;-66
2023/09/07 06:49:29;;;;;;;16.50;7.90;;;;;;;17.78;61.15;102062.48;107325;1257;110479;-66
2023/09/07 06:51:58;;;;;;;19.30;8.40;;;;;;;17.90;60.91;102062.27;107369;1257;107995;-66
2023/09/07 06:54:28;;;;;;;16.30;7.80;;;;;;;18.05;60.88;102058.88;107214;1256;99106;-65
2023/09/07 06:56:57;;;;;;;16.30;8.80;;;;;;;18.21;60.25;102063.59;107296;1257;99185;-65
2023/09/07 06:59:26;;;;;;;14.50;7.80;;;;;;;18.33;59.88;102067.05;107359;1257;113492;-67
2023/09/07 07:01:54;;;;;;;17.70;7.50;;;;;;;18.45;59.53;102062.39;107277;1256;109692;-65
2023/09/07 07:04:22;;;;;;;16.30;8.90;;;;;;;18.53;59.01;102064.67;107362;1254;107053;-65
2023/09/07 07:06:51;;;;;;;16.90;9.50;;;;;;;18.60;58.64;102061.40;107310;1256;99205;-65
2023/09/07 07:09:19;;;;;;;20.30;9.00;;;;;;;18.75;58.97;102059.30;107348;1257;99710;-68
2023/09/07 07:11:49;;;;;;;20.20;7.70;;;;;;;18.91;58.65;102060.75;107109;1256;112759;-65
2023/09/07 07:14:17;;;;;;;14.50;8.30;;;;;;;19.07;58.29;102060.23;107418;1254;109491;-68
2023/09/07 07:16:45;;;;;;;12.60;7.50;;;;;;;19.23;57.98;102060.42;107315;1256;107845;-67
2023/09/07 07:19:14;;;;;;;16.70;8.90;;;;;;;19.32;57.58;102060.57;107177;1261;99109;-70
2023/09/07 07:21:42;;;;;;;16.40;8.70;;;;;;;19.39;57.71;102055.77;107198;1256;99733;-67
2023/09/07 07:24:11;;;;;;;17.20;8.70;;;;;;;19.49;57.04;102060.61;107320;1258;112961;-65
2023/09/07 07:26:39;;;;;;;15.50;7.80;;;;;;;19.51;56.46;102056.35;107229;1260;108861;-67
2023/09/07 07:29:08;;;;;;;20.60;8.60;;;;;;;19.54;56.61;102055.49;107349;1257;107541;-65
2023/09/07 07:31:37;;;;;;;19.50;9.00;;;;;;;19.61;56.57;102060.42;107338;1257;99240;-65
2023/09/07 07:34:06;;;;;;;18.80;9.30;;;;;;;19.67;56.36;102063.00;107346;1257;99755;-65
2023/09/07 07:36:34;;;;;;;24.30;9.20;;;;;;;19.75;56.14;102061.88;107348;1257;113484;-66
2023/09/07 07:39:06;;;;;;;18.80;8.70;;;;;;;19.82;55.79;102061.25;107349;1259;109615;-65
2023/09/07 07:41:35;;;;;;;16.20;8.80;;;;;;;20.01;55.77;102059.55;107267;1257;107182;-66
2023/09/07 07:44:04;;;;;;;20.20;8.70;;;;;;;20.24;55.39;102056.38;107313;1258;99212;-65
2023/09/07 07:46:32;;;;;;;17.80;8.90;;;;;;;20.39;54.82;102051.64;107376;1257;99812;-66
2023/09/07 07:49:01;;;;;;;15.20;8.70;;;;;;;20.62;55.07;102052.43;107235;1260;113028;-68
2023/09/07 07:51:30;;;;;;;18.70;8.70;;;;;;;20.77;54.37;102050.90;107388;1256;108699;-67
2023/09/07 07:53:59;;;;;;;17.60;9.00;;;;;;;20.82;53.65;102047.85;107365;1257;108747;-65
2023/09/07 07:56:28;;;;;;;20.00;9.00;;;;;;;20.87;54.07;102044.63;107225;1257;99173;-66
2023/09/07 07:59:00;;;;;;;21.40;9.10;;;;;;;20.96;53.63;102045.13;107402;1257;99336;-66
2023/09/07 08:01:29;;;;;;;17.10;7.50;;;;;;;21.01;53.57;102040.71;107358;1258;113411;-67
2023/09/07 08:03:59;;;;;;;20.60;8.10;;;;;;;21.04;53.31;102041.00;107357;1257;108157;-66
2023/09/07 08:06:31;;;;;;;17.90;8.40;;;;;;;21.04;53.28;102037.52;107377;1256;107121;-67
2023/09/07 08:09:00;;;;;;;21.20;8.30;;;;;;;21.05;53.19;102030.41;107318;1259;99220;-66
2023/09/07 08:11:29;;;;;;;18.80;8.20;;;;;;;21.01;52.97;102031.02;107389;1257;100980;-66
2023/09/07 08:13:58;;;;;;;14.60;8.70;;;;;;;21.07;53.29;102029.30;107342;1257;113309;-67
2023/09/07 08:16:26;;;;;;;32.40;9.20;;;;;;;21.16;52.94;102026.10;107376;1257;110002;-67
2023/09/07 08:18:54;;;;;;;19.10;8.20;;;;;;;21.29;52.91;102019.35;107196;1256;109324;-67
2023/09/07 08:21:23;;;;;;;18.90;7.90;;;;;;;21.45;52.86;102017.70;107254;1257;99381;-66
2023/09/07 08:23:52;;;;;;;13.20;7.50;;;;;;;21.62;52.88;102015.70;107322;1257;99716;-66
2023/09/07 08:26:21;;;;;;;17.50;8.10;;;;;;;21.80;52.74;102017.90;107383;1257;111818;-67
2023/09/07 08:28:49;;;;;;;21.80;7.20;;;;;;;21.98;52.85;102010.53;107235;1256;110110;-66
2023/09/07 08:31:21;;;;;;;24.60;8.20;;;;;;;22.16;52.53;102013.10;107309;1258;107372;-66
2023/09/07 08:33:51;;;;;;;16.90;7.90;;;;;;;22.35;51.98;102009.89;107210;1256;99323;-67
2023/09/07 08:36:22;;;;;;;13.30;7.10;;;;;;;22.53;51.19;102010.39;107395;1259;99061;-67
2023/09/07 08:38:53;;;;;;;16.40;7.20;;;;;;;22.71;50.92;102006.60;107245;1256;112828;-65
2023/09/07 08:41:23;;;;;;;22.40;7.40;;;;;;;22.91;50.38;102006.36;107358;1257;110067;-69
2023/09/07 08:43:54;;;;;;;14.20;6.70;;;;;;;23.14;49.79;102004.49;107325;1257;108582;-66
2023/09/07 08:46:23;;;;;;;15.10;5.80;;;;;;;23.35;49.09;102001.73;107370;1255;99301;-66
2023/09/07 08:48:55;;;;;;;7.50;4.80;;;;;;;23.52;47.87;102001.94;107344;1257;99166;-66
2023/09/07 08:51:27;;;;;;;19.10;8.10;;;;;;;23.77;48.12;101998.25;107377;1256;112251;-65
2023/09/07 08:53:57;;;;;;;13.30;5.30;;;;;;;24.06;47.07;101992.83;107355;1257;108935;-66
2023/09/07 08:56:26;;;;;;;16.00;5.40;;;;;;;24.31;46.46;101992.71;107385;1256;108354;-66
2023/09/07 08:58:54;;;;;;;10.70;5.60;;;;;;;24.57;46.18;101991.31;107342;1256;99237;-66
2023/09/07 09:01:23;;;;;;;9.30;5.40;;;;;;;24.82;44.01;101987.08;107408;1257;99683;-66
2023/09/07 09:03:52;;;;;;;15.90;5.10;;;;;;;25.05;44.19;101985.64;107399;1257;113181;-66
2023/09/07 09:06:24;;;;;;;13.20;4.90;;;;;;;25.30;43.13;101977.55;107425;1254;109454;-66
2023/09/07 09:08:56;;;;;;;9.50;4.80;;;;;;;25.57;42.67;101979.66;107342;1254;108090;-65
2023/09/07 09:11:27;;;;;;;13.50;4.90;;;;;;;25.85;42.54;101979.86;107343;1254;99079;-66
2023/09/07 09:13:55;;;;;;;12.30;5.10;;;;;;;26.15;42.00;101976.61;107432;1254;99710;-67
2023/09/07 09:16:24;;;;;;;10.60;4.70;;;;;;;26.44;41.26;101974.61;107391;1254;112625;-65
2023/09/07 09:18:55;;;;;;;10.20;5.10;;;;;;;26.77;40.31;101977.32;107404;1258;109253;-65
2023/09/07 09:21:26;;;;;;;12.60;5.20;;;;;;;27.11;40.54;101971.95;107389;1254;107641;-67
2023/09/07 09:23:56;;;;;;;14.60;4.60;;;;;;;27.62;39.88;101967.19;107364;1254;99298;-66
2023/09/07 09:26:24;;;;;;;7.90;4.70;;;;;;;28.20;38.17;101964.26;107407;1254;99720;-65
2023/09/07 09:28:59;;;;;;;10.20;3.60;;;;;;;28.87;37.10;101963.63;107404;1254;112635;-66
2023/09/07 09:31:30;;;;;;;5.20;3.30;;;;;;;29.57;36.39;101961.45;107341;1254;109377;-64
2023/09/07 09:33:58;;;;;;;4.50;3.50;;;;;;;30.37;34.57;101961.20;107336;1260;107619;-66
2023/09/07 09:36:33;;;;;;;5.90;3.60;;;;;;;30.97;34.07;101961.85;107362;1257;99198;-65
2023/09/07 09:39:05;;;;;;;10.80;2.90;;;;;;;31.51;32.25;101959.30;107447;1254;99174;-66
2023/09/07 09:41:34;;;;;;;5.10;3.10;;;;;;;32.01;32.03;101956.26;107457;1254;113446;-66
2023/09/07 09:44:03;;;;;;;4.80;2.60;;;;;;;32.56;30.90;101951.79;107448;1254;109120;-65
2023/09/07 09:46:33;;;;;;;7.30;2.80;;;;;;;33.04;30.54;101947.11;107435;1257;108728;-66
2023/09/07 09:49:03;;;;;;;7.50;2.70;;;;;;;33.47;30.71;101945.33;107418;1254;99171;-67
2023/09/07 09:51:32;;;;;;;8.30;2.40;;;;;;;34.16;29.80;101942.84;107458;1254;99064;-67
2023/09/07 09:54:01;;;;;;;3.50;2.70;;;;;;;34.77;27.79;101942.40;107491;1257;113309;-66
2023/09/07 09:56:30;;;;;;;5.40;2.20;;;;;;;35.37;27.38;101940.86;106989;1257;688298;-66
2023/09/07 09:58:58;;;;;;;4.40;2.50;;;;;;;35.67;25.11;101938.45;107412;1254;108272;-66
2023/09/07 10:01:29;;;;;;;4.20;2.40;;;;;;;35.44;26.29;101941.92;107334;1258;99310;-65
2023/09/07 10:03:57;;;;;;;8.00;2.30;;;;;;;35.37;26.16;101941.30;107434;1257;99150;-66
2023/09/07 10:06:29;;;;;;;8.20;2.50;;;;;;;34.63;26.20;101936.56;107416;1258;113617;-66
2023/09/07 10:09:06;;;;;;;6.70;2.30;;;;;;;33.84;26.50;101931.23;107435;1254;109464;-65
2023/09/07 10:11:37;;;;;;;4.00;2.10;;;;;;;32.98;27.27;101934.48;107356;1257;106974;-65
2023/09/07 10:14:07;;;;;;;5.40;2.30;;;;;;;32.79;28.49;101929.81;107370;1258;99207;-65
2023/09/07 10:16:47;;;;;;;3.90;2.70;;;;;;;33.55;27.31;101928.38;107370;1257;100558;-65
2023/09/07 10:19:23;;;;;;;9.80;2.50;;;;;;;34.30;27.68;101928.70;107384;1258;113227;-67
2023/09/07 10:21:54;;;;;;;8.20;2.20;;;;;;;35.17;26.45;101925.23;107432;1254;108755;-65
2023/09/07 10:24:26;;;;;;;5.90;2.70;;;;;;;35.70;25.67;101919.88;107390;1254;107632;-65
2023/09/07 10:27:08;;;;;;;3.90;2.20;;;;;;;36.47;26.17;101916.78;107377;1254;99092;-65
2023/09/07 10:29:45;;;;;;;5.00;2.00;;;;;;;37.33;24.05;101916.72;107398;1254;99041;-66
2023/09/07 10:32:16;;;;;;;4.40;2.10;;;;;;;36.99;23.24;101917.38;107406;1254;112625;-65
2023/09/07 10:34:47;;;;;;;2.80;1.90;;;;;;;36.14;23.67;101920.09;107367;1254;109615;-67
2023/09/07 10:37:16;;;;;;;4.00;2.00;;;;;;;35.13;24.48;101911.30;107413;1254;107429;-64
2023/09/07 10:39:45;;;;;;;6.30;2.00;;;;;;;34.37;25.36;101912.05;107393;1254;99322;-65
2023/09/07 10:42:24;;;;;;;7.90;2.10;;;;;;;33.93;25.94;101909.94;107399;1254;99441;-65
2023/09/07 10:44:54;;;;;;;5.80;2.90;;;;;;;34.51;25.65;101903.48;107434;1254;113690;-67
2023/09/07 10:47:23;;;;;;;3.20;2.20;;;;;;;35.01;25.38;101903.90;107396;1254;108803;-65
2023/09/07 10:49:51;;;;;;;3.90;1.80;;;;;;;35.56;24.57;101894.27;107414;1254;108101;-67
2023/09/07 10:52:19;;;;;;;8.20;1.90;;;;;;;35.66;24.73;101893.84;107377;1254;99183;-66
2023/09/07 10:54:59;;;;;;;5.60;1.90;;;;;;;35.66;25.05;101890.48;107399;1254;99082;-66
2023/09/07 10:57:27;;;;;;;2.60;1.70;;;;;;;35.89;22.93;101887.92;107399;1255;113274;-67
2023/09/07 10:59:55;;;;;;;2.30;1.70;;;;;;;35.06;23.54;101889.02;107237;1257;108980;-66
2023/09/07 11:02:23;;;;;;;6.10;1.70;;;;;;;35.13;24.66;101886.14;107403;1257;108067;-66
2023/09/07 11:04:52;;;;;;;14.90;1.90;;;;;;;36.17;25.01;101879.64;107328;1259;99285;-66
2023/09/07 11:07:21;;;;;;;10.10;2.10;;;;;;;37.30;23.61;101876.20;107340;1256;100965;-67
2023/09/07 11:09:52;;;;;;;3.90;2.10;;;;;;;38.27;21.98;101873.63;107376;1257;112696;-65
2023/09/07 11:12:21;;;;;;;5.60;1.60;;;;;;;38.62;20.31;101870.25;107395;1257;110049;-66
2023/09/07 11:14:50;;;;;;;3.80;1.70;;;;;;;37.59;21.20;101875.43;107328;1257;109176;-66
2023/09/07 11:17:25;;;;;;;4.00;2.00;;;;;;;36.82;21.18;101874.13;107379;1259;99189;-65